createdAt,value
2023-04-27T00:01:07.197Z,4.72
2023-04-27T00:03:39.202Z,4.74
2023-04-27T00:06:11.887Z,4.77
2023-04-27T00:08:43.708Z,4.79
2023-04-27T00:11:15.365Z,4.82
2023-04-27T00:13:47.335Z,4.88
2023-04-27T00:16:19.169Z,4.93
2023-04-27T00:18:51.167Z,4.97
2023-04-27T00:21:22.966Z,4.98
2023-04-27T00:23:55.086Z,4.98
2023-04-27T00:26:26.902Z,4.97
2023-04-27T00:28:58.885Z,4.96
2023-04-27T00:31:30.740Z,4.95
2023-04-27T00:34:02.658Z,4.94
2023-04-27T00:36:36.062Z,4.92
2023-04-27T00:39:08.040Z,4.90
2023-04-27T00:41:41.119Z,4.88
2023-04-27T00:44:12.922Z,4.86
2023-04-27T00:46:45.229Z,4.82
2023-04-27T00:49:18.716Z,4.77
2023-04-27T00:51:50.792Z,4.72
2023-04-27T00:54:23.973Z,4.69
2023-04-27T00:56:56.639Z,4.70
2023-04-27T00:59:28.380Z,4.71
2023-04-27T01:02:00.660Z,4.70
2023-04-27T01:04:33.220Z,4.69
2023-04-27T01:07:05.171Z,4.67
2023-04-27T01:09:37.039Z,4.66
2023-04-27T01:12:09.862Z,4.64
2023-04-27T01:14:41.679Z,4.63
2023-04-27T01:17:14.173Z,4.66
2023-04-27T01:19:46.239Z,4.66
2023-04-27T01:22:18.075Z,4.65
2023-04-27T01:24:52.025Z,4.64
2023-04-27T01:27:23.842Z,4.60
2023-04-27T01:29:55.910Z,4.57
2023-04-27T01:32:29.292Z,4.56
2023-04-27T01:35:01.142Z,4.54
2023-04-27T01:37:33.648Z,4.52
2023-04-27T01:40:06.716Z,4.48
2023-04-27T01:42:38.681Z,4.43
2023-04-27T01:45:14.323Z,4.37
2023-04-27T01:47:46.222Z,4.31
2023-04-27T01:50:18.016Z,4.27
2023-04-27T01:52:50.673Z,4.24
2023-04-27T01:55:22.756Z,4.24
2023-04-27T01:57:53.136Z,4.20
2023-04-27T02:00:25.253Z,4.16
2023-04-27T02:02:57.513Z,4.17
2023-04-27T02:05:29.657Z,4.17
2023-04-27T02:08:01.535Z,4.16
2023-04-27T02:10:33.591Z,4.16
2023-04-27T02:13:05.411Z,4.16
2023-04-27T02:15:37.373Z,4.12
2023-04-27T02:18:09.404Z,4.07
2023-04-27T02:20:41.718Z,4.02
2023-04-27T02:23:13.683Z,3.99
2023-04-27T02:25:47.514Z,3.93
2023-04-27T02:28:19.307Z,3.83
2023-04-27T02:30:51.737Z,3.76
2023-04-27T02:33:23.812Z,3.70
2023-04-27T02:35:55.840Z,3.63
2023-04-27T02:38:27.907Z,3.57
2023-04-27T02:40:59.709Z,3.52
2023-04-27T02:43:31.329Z,3.51
2023-04-27T02:46:06.301Z,3.52
2023-04-27T02:48:38.083Z,3.47
2023-04-27T02:51:10.068Z,3.44
2023-04-27T02:53:41.859Z,3.44
2023-04-27T02:56:13.623Z,3.45
2023-04-27T02:58:45.946Z,3.46
2023-04-27T03:01:18.871Z,3.45
2023-04-27T03:03:51.044Z,3.43
2023-04-27T03:06:21.492Z,3.42
2023-04-27T03:08:53.309Z,3.39
2023-04-27T03:11:26.013Z,3.35
2023-04-27T03:13:57.891Z,3.33
2023-04-27T03:16:29.920Z,3.32
2023-04-27T03:19:00.475Z,3.31
2023-04-27T03:21:32.813Z,3.30
2023-04-27T03:24:03.472Z,3.33
2023-04-27T03:26:35.584Z,3.36
2023-04-27T03:29:09.327Z,3.40
2023-04-27T03:31:41.186Z,3.42
2023-04-27T03:34:13.130Z,3.45
2023-04-27T03:36:45.155Z,3.46
2023-04-27T03:42:33.307Z,3.56
2023-04-27T03:45:02.276Z,3.57
2023-04-27T03:47:30.877Z,3.60
2023-04-27T03:49:59.648Z,3.65
2023-04-27T03:52:28.366Z,3.71
2023-04-27T03:54:56.797Z,3.78
2023-04-27T03:57:25.595Z,3.87
2023-04-27T03:59:54.147Z,3.95
2023-04-27T04:02:23.530Z,4.00
2023-04-27T04:04:52.741Z,4.04
2023-04-27T04:07:21.630Z,4.08
2023-04-27T04:09:50.086Z,4.12
2023-04-27T04:12:18.565Z,4.18
2023-04-27T04:14:48.420Z,4.22
2023-04-27T04:17:17.040Z,4.29
2023-04-27T04:19:45.436Z,4.37
2023-04-27T04:22:14.235Z,4.45
2023-04-27T04:24:43.052Z,4.61
2023-04-27T04:27:11.739Z,4.84
2023-04-27T04:29:40.258Z,5.16
2023-04-27T04:32:09.191Z,5.56
2023-04-27T04:34:38.779Z,6.02
2023-04-27T04:37:07.327Z,6.53
2023-04-27T04:39:35.929Z,7.06
2023-04-27T04:42:04.916Z,7.60
2023-04-27T04:44:33.474Z,8.14
2023-04-27T04:47:02.316Z,8.69
2023-04-27T04:49:31.622Z,9.19
2023-04-27T04:52:00.108Z,9.66
2023-04-27T04:54:28.746Z,10.08
2023-04-27T04:56:58.417Z,10.48
2023-04-27T04:59:27.525Z,10.91
2023-04-27T05:01:56.346Z,11.33
2023-04-27T05:04:25.964Z,11.69
2023-04-27T05:06:54.415Z,12.03
2023-04-27T05:09:23.041Z,12.37
2023-04-27T05:11:51.818Z,12.67
2023-04-27T05:14:20.255Z,12.89
2023-04-27T05:16:48.889Z,12.97
2023-04-27T05:19:17.858Z,13.16
2023-04-27T05:21:48.546Z,13.40
2023-04-27T05:24:17.079Z,13.73
2023-04-27T05:26:45.655Z,14.09
2023-04-27T05:29:14.689Z,14.43
2023-04-27T05:31:43.647Z,14.71
2023-04-27T05:34:12.746Z,14.99
2023-04-27T05:36:41.527Z,15.33
2023-04-27T05:39:10.901Z,15.65
2023-04-27T05:41:39.492Z,15.97
2023-04-27T05:44:08.221Z,16.13
2023-04-27T05:46:38.729Z,16.31
2023-04-27T05:49:07.613Z,16.28
2023-04-27T05:51:37.825Z,16.11
2023-04-27T05:54:07.539Z,16.10
2023-04-27T05:56:37.244Z,16.13
2023-04-27T05:59:06.096Z,16.20
2023-04-27T06:01:34.629Z,16.35
2023-04-27T06:04:03.354Z,16.44
2023-04-27T06:06:35.049Z,16.38
2023-04-27T06:09:03.677Z,16.34
2023-04-27T06:11:32.171Z,16.37
2023-04-27T06:14:00.697Z,16.32
2023-04-27T06:16:29.256Z,16.30
2023-04-27T06:18:57.794Z,16.31
2023-04-27T06:21:26.309Z,16.32
2023-04-27T06:23:54.930Z,16.23
2023-04-27T06:26:23.475Z,16.26
2023-04-27T06:28:52.068Z,16.37
2023-04-27T06:31:20.652Z,16.64
2023-04-27T06:33:49.236Z,16.85
2023-04-27T06:36:17.705Z,16.95
2023-04-27T06:38:46.220Z,17.06
2023-04-27T06:41:14.821Z,17.23
2023-04-27T06:43:43.738Z,17.28
2023-04-27T06:46:12.258Z,17.14
2023-04-27T06:48:40.790Z,17.17
2023-04-27T06:51:09.294Z,17.25
2023-04-27T06:53:37.858Z,17.46
2023-04-27T06:56:10.149Z,17.60
2023-04-27T06:58:38.896Z,17.82
2023-04-27T07:01:07.435Z,17.98
2023-04-27T07:03:36.360Z,18.08
2023-04-27T07:06:06.864Z,18.16
2023-04-27T07:08:36.330Z,18.14
2023-04-27T07:11:05.002Z,18.05
2023-04-27T07:13:33.432Z,18.12
2023-04-27T07:16:01.985Z,18.27
2023-04-27T07:18:30.385Z,18.51
2023-04-27T07:20:58.893Z,18.64
2023-04-27T07:23:27.298Z,18.70
2023-04-27T07:25:55.995Z,18.85
2023-04-27T07:28:24.530Z,18.83
2023-04-27T07:30:53.162Z,18.77
2023-04-27T07:33:22.020Z,18.71
2023-04-27T07:35:50.864Z,18.80
2023-04-27T07:38:20.095Z,18.98
2023-04-27T07:40:49.078Z,19.28
2023-04-27T07:43:17.800Z,19.54
2023-04-27T07:45:46.339Z,19.68
2023-04-27T07:48:14.916Z,19.61
2023-04-27T07:50:43.413Z,19.29
2023-04-27T07:53:12.240Z,19.13
2023-04-27T07:55:40.832Z,19.26
2023-04-27T07:58:09.342Z,19.34
2023-04-27T08:00:37.848Z,19.40
2023-04-27T08:03:07.342Z,19.65
2023-04-27T08:05:36.158Z,19.90
2023-04-27T08:08:05.823Z,19.40
2023-04-27T08:10:34.591Z,18.68
2023-04-27T08:13:03.277Z,18.08
2023-04-27T08:15:31.804Z,17.68
2023-04-27T08:18:00.415Z,17.62
2023-04-27T08:20:30.578Z,17.92
2023-04-27T08:22:59.021Z,18.17
2023-04-27T08:25:27.485Z,17.96
2023-04-27T08:27:56.027Z,17.92
2023-04-27T08:30:25.266Z,18.10
2023-04-27T08:32:54.388Z,18.25
2023-04-27T08:35:22.830Z,18.03
2023-04-27T08:37:51.332Z,17.80
2023-04-27T08:40:20.430Z,17.52
2023-04-27T08:42:56.373Z,17.24
2023-04-27T08:45:26.145Z,16.87
2023-04-27T08:47:55.041Z,16.46
2023-04-27T08:50:26.702Z,15.96
2023-04-27T08:52:55.232Z,15.69
2023-04-27T08:55:24.063Z,15.54
2023-04-27T08:57:56.920Z,15.44
2023-04-27T09:00:38.057Z,15.37
2023-04-27T09:03:07.387Z,15.53
2023-04-27T09:05:36.230Z,15.84
2023-04-27T09:08:07.803Z,15.90
2023-04-27T09:10:46.694Z,15.83
2023-04-27T09:13:15.462Z,15.65
2023-04-27T09:15:47.082Z,15.54
2023-04-27T09:18:18.241Z,15.39
2023-04-27T09:20:47.710Z,15.26
2023-04-27T09:23:27.674Z,15.20
2023-04-27T09:25:56.964Z,15.12
2023-04-27T09:28:27.414Z,15.06
2023-04-27T09:30:57.795Z,15.06
2023-04-27T09:33:27.121Z,15.11
2023-04-27T09:35:56.376Z,15.16
2023-04-27T09:38:25.393Z,15.22
2023-04-27T09:40:54.693Z,15.23
2023-04-27T09:43:24.259Z,15.22
2023-04-27T09:45:54.428Z,15.29
2023-04-27T09:48:24.369Z,15.39
2023-04-27T09:50:53.459Z,15.47
2023-04-27T09:53:26.145Z,15.46
2023-04-27T09:56:03.984Z,15.40
2023-04-27T09:58:58.956Z,15.36
2023-04-27T10:01:37.416Z,15.28
2023-04-27T10:04:21.407Z,15.15
2023-04-27T10:06:59.088Z,15.01
2023-04-27T10:09:35.697Z,14.83
2023-04-27T10:12:16.679Z,14.70
2023-04-27T10:14:55.708Z,14.65
2023-04-27T10:17:31.477Z,14.67
2023-04-27T10:20:01.313Z,14.68
2023-04-27T10:22:40.896Z,14.73
2023-04-27T10:25:20.881Z,14.75
2023-04-27T10:27:54.043Z,14.77
2023-04-27T10:30:23.944Z,14.73
2023-04-27T10:32:54.025Z,14.71
2023-04-27T10:35:32.182Z,14.76
2023-04-27T10:38:08.102Z,14.79
2023-04-27T10:40:37.625Z,14.80
2023-04-27T10:43:11.725Z,14.77
2023-04-27T10:45:41.450Z,14.64
2023-04-27T10:48:12.804Z,14.34
2023-04-27T10:50:43.970Z,14.04
2023-04-27T10:53:12.765Z,13.79
2023-04-27T10:55:41.434Z,13.68
2023-04-27T10:58:10.350Z,13.63
2023-04-27T11:00:43.618Z,13.64
2023-04-27T11:03:15.968Z,13.70
2023-04-27T11:05:46.149Z,13.83
2023-04-27T11:08:17.178Z,13.94
2023-04-27T11:10:49.316Z,14.06
2023-04-27T11:13:19.716Z,14.17
2023-04-27T11:15:51.241Z,14.24
2023-04-27T11:18:21.672Z,14.25
2023-04-27T11:20:51.795Z,14.30
2023-04-27T11:23:28.330Z,14.32
2023-04-27T11:25:57.118Z,14.26
2023-04-27T11:28:26.202Z,14.31
2023-04-27T11:30:58.872Z,14.42
2023-04-27T11:33:27.891Z,14.52
2023-04-27T11:35:56.860Z,14.68
2023-04-27T11:38:26.842Z,14.81
2023-04-27T11:41:03.612Z,14.93
2023-04-27T11:43:32.817Z,15.05
2023-04-27T11:46:07.551Z,15.12
2023-04-27T11:48:37.913Z,15.10
2023-04-27T11:51:07.441Z,15.10
2023-04-27T11:53:37.784Z,14.96
2023-04-27T11:56:09.925Z,14.75
2023-04-27T11:58:39.871Z,14.68
2023-04-27T12:01:09.902Z,14.52
2023-04-27T12:03:38.668Z,14.34
2023-04-27T12:06:27.271Z,14.15
2023-04-27T12:08:56.876Z,14.00
2023-04-27T12:11:27.484Z,13.92
2023-04-27T12:13:56.872Z,13.90
2023-04-27T12:16:25.562Z,13.82
2023-04-27T12:18:54.349Z,13.77
2023-04-27T12:21:24.198Z,13.76
2023-04-27T12:23:52.788Z,13.74
2023-04-27T12:26:21.297Z,13.66
2023-04-27T12:28:49.801Z,13.63
2023-04-27T12:31:23.226Z,13.60
2023-04-27T12:33:53.412Z,13.59
2023-04-27T12:36:22.038Z,13.59
2023-04-27T12:38:51.097Z,13.57
2023-04-27T12:41:19.730Z,13.58
2023-04-27T12:43:48.736Z,13.58
2023-04-27T12:46:18.061Z,13.64
2023-04-27T12:48:46.845Z,13.77
2023-04-27T12:51:16.075Z,13.95
2023-04-27T12:53:44.862Z,14.14
2023-04-27T12:56:13.400Z,14.27
2023-04-27T12:58:42.251Z,14.37
2023-04-27T13:01:14.166Z,14.43
2023-04-27T13:03:43.131Z,14.51
2023-04-27T13:06:12.200Z,14.51
2023-04-27T13:08:41.448Z,14.45
2023-04-27T13:11:10.270Z,14.30
2023-04-27T13:13:39.108Z,14.24
2023-04-27T13:16:08.185Z,14.18
2023-04-27T13:18:37.264Z,14.07
2023-04-27T13:21:06.417Z,13.94
2023-04-27T13:23:35.268Z,13.84
2023-04-27T13:26:03.991Z,13.78
2023-04-27T13:28:32.878Z,13.67
2023-04-27T13:31:01.454Z,13.66
2023-04-27T13:33:32.397Z,13.64
2023-04-27T13:36:03.221Z,13.57
2023-04-27T13:38:31.700Z,13.57
2023-04-27T13:41:00.247Z,13.65
2023-04-27T13:43:29.136Z,13.72
2023-04-27T13:46:01.278Z,13.80
2023-04-27T13:48:31.297Z,13.84
2023-04-27T13:51:01.195Z,13.92
2023-04-27T13:53:29.700Z,14.01
2023-04-27T13:55:58.677Z,14.01
2023-04-27T13:58:31.701Z,14.03
2023-04-27T14:01:00.525Z,14.07
2023-04-27T14:03:29.656Z,14.00
2023-04-27T15:14:35.907Z,12.59
2023-04-27T15:17:07.909Z,12.62
2023-04-27T15:19:38.664Z,12.69
2023-04-27T15:22:10.587Z,12.75
2023-04-27T15:24:42.571Z,12.80
2023-04-27T15:27:14.402Z,12.81
2023-04-27T15:29:49.104Z,12.78
2023-04-27T15:32:23.220Z,12.80
2023-04-27T15:34:55.159Z,12.80
2023-04-27T15:37:28.444Z,12.73
2023-04-27T15:40:07.669Z,12.66
2023-04-27T15:42:39.615Z,12.69
2023-04-27T15:45:12.890Z,12.73
2023-04-27T15:47:44.841Z,12.74
2023-04-27T15:50:17.986Z,12.74
2023-04-27T15:52:50.138Z,12.69
2023-04-27T15:55:21.304Z,12.68
2023-04-27T15:57:53.287Z,12.63
2023-04-27T16:00:24.756Z,12.66
2023-04-27T16:02:56.929Z,12.66
2023-04-27T16:05:29.615Z,12.68
2023-04-27T16:08:01.639Z,12.66
2023-04-27T16:10:32.088Z,12.67
2023-04-27T16:13:04.329Z,12.66
2023-04-27T16:15:36.479Z,12.63
2023-04-27T16:18:08.491Z,12.62
2023-04-27T16:20:38.767Z,12.57
2023-04-27T16:23:11.173Z,12.50
2023-04-27T16:25:43.153Z,12.48
2023-04-27T16:28:13.616Z,12.49
2023-04-27T16:30:49.353Z,12.46
2023-04-27T16:33:21.798Z,12.34
2023-04-27T16:35:53.664Z,12.18
2023-04-27T16:38:25.560Z,12.13
2023-04-27T16:40:58.411Z,12.07
2023-04-27T16:43:31.424Z,12.00
2023-04-27T16:46:03.362Z,11.95
2023-04-27T16:48:33.957Z,11.92
2023-04-27T16:51:06.632Z,11.89
2023-04-27T16:53:39.083Z,11.83
2023-04-27T16:56:12.220Z,11.70
2023-04-27T16:58:44.005Z,11.57
2023-04-27T17:01:14.669Z,11.42
2023-04-27T17:03:46.819Z,11.36
2023-04-27T17:06:20.312Z,11.33
2023-04-27T17:08:52.071Z,11.33
2023-04-27T17:11:23.999Z,11.34
2023-04-27T17:13:55.833Z,11.40
2023-04-27T17:16:28.170Z,11.44
2023-04-27T17:19:00.288Z,11.43
2023-04-27T17:21:32.490Z,11.41
2023-04-27T17:24:03.250Z,11.43
2023-04-27T17:26:35.126Z,11.39
2023-04-27T17:29:06.889Z,11.37
2023-04-27T17:31:39.030Z,11.31
2023-04-27T17:34:12.090Z,11.30
2023-04-27T17:36:44.081Z,11.25
2023-04-27T17:39:14.939Z,11.20
2023-04-27T17:41:47.045Z,11.16
2023-04-27T17:44:18.012Z,11.15
2023-04-27T17:46:50.852Z,11.13
2023-04-27T17:49:23.280Z,11.11
2023-04-27T17:51:55.563Z,11.10
2023-04-27T17:54:29.933Z,11.09
2023-04-27T17:57:03.018Z,11.10
2023-04-27T17:59:35.437Z,11.10
2023-04-27T18:02:07.644Z,11.08
2023-04-27T18:04:40.248Z,11.02
2023-04-27T18:07:12.654Z,10.98
